sensor_id;sensor_type;location;lat;lon;timestamp;temperature;humidity
4840;DHT22;2434;48.486;7.964;2023-07-20T00:00:14;22.10;35.00
4840;DHT22;2434;48.486;7.964;2023-07-20T00:02:42;22.10;34.80
4840;DHT22;2434;48.486;7.964;2023-07-20T00:05:11;22.10;34.70
4840;DHT22;2434;48.486;7.964;2023-07-20T00:07:39;22.00;35.30
4840;DHT22;2434;48.486;7.964;2023-07-20T00:10:10;22.00;35.70
4840;DHT22;2434;48.486;7.964;2023-07-20T00:12:38;22.00;35.20
4840;DHT22;2434;48.486;7.964;2023-07-20T00:15:07;21.90;35.60
4840;DHT22;2434;48.486;7.964;2023-07-20T00:17:35;21.90;35.60
4840;DHT22;2434;48.486;7.964;2023-07-20T00:20:05;21.80;35.60
4840;DHT22;2434;48.486;7.964;2023-07-20T00:22:33;21.70;35.90
4840;DHT22;2434;48.486;7.964;2023-07-20T00:25:02;21.70;36.60
4840;DHT22;2434;48.486;7.964;2023-07-20T00:27:31;21.60;36.30
4840;DHT22;2434;48.486;7.964;2023-07-20T00:30:00;21.60;36.70
4840;DHT22;2434;48.486;7.964;2023-07-20T00:32:28;21.50;37.10
4840;DHT22;2434;48.486;7.964;2023-07-20T00:34:57;21.40;37.80
4840;DHT22;2434;48.486;7.964;2023-07-20T00:37:25;21.40;38.30
4840;DHT22;2434;48.486;7.964;2023-07-20T00:39:53;21.40;38.10
4840;DHT22;2434;48.486;7.964;2023-07-20T00:42:22;21.40;38.50
4840;DHT22;2434;48.486;7.964;2023-07-20T00:44:52;21.30;38.50
4840;DHT22;2434;48.486;7.964;2023-07-20T00:47:21;21.20;37.80
4840;DHT22;2434;48.486;7.964;2023-07-20T00:49:51;21.20;38.30
4840;DHT22;2434;48.486;7.964;2023-07-20T00:52:22;21.20;38.80
4840;DHT22;2434;48.486;7.964;2023-07-20T00:54:52;21.20;38.70
4840;DHT22;2434;48.486;7.964;2023-07-20T00:57:24;21.10;38.90
4840;DHT22;2434;48.486;7.964;2023-07-20T00:59:54;21.00;38.10
4840;DHT22;2434;48.486;7.964;2023-07-20T01:02:23;21.00;38.20
4840;DHT22;2434;48.486;7.964;2023-07-20T01:04:51;20.90;38.70
4840;DHT22;2434;48.486;7.964;2023-07-20T01:07:25;20.80;39.20
4840;DHT22;2434;48.486;7.964;2023-07-20T01:10:02;20.80;39.60
4840;DHT22;2434;48.486;7.964;2023-07-20T01:12:40;20.80;39.80
4840;DHT22;2434;48.486;7.964;2023-07-20T01:15:11;20.70;40.10
4840;DHT22;2434;48.486;7.964;2023-07-20T01:17:39;20.70;40.50
4840;DHT22;2434;48.486;7.964;2023-07-20T01:20:10;20.70;40.10
4840;DHT22;2434;48.486;7.964;2023-07-20T01:22:55;20.60;40.40
4840;DHT22;2434;48.486;7.964;2023-07-20T01:25:40;20.60;40.00
4840;DHT22;2434;48.486;7.964;2023-07-20T01:28:35;20.60;40.60
4840;DHT22;2434;48.486;7.964;2023-07-20T01:31:24;20.60;40.20
4840;DHT22;2434;48.486;7.964;2023-07-20T01:33:55;20.60;41.50
4840;DHT22;2434;48.486;7.964;2023-07-20T01:36:26;20.60;40.90
4840;DHT22;2434;48.486;7.964;2023-07-20T01:38:54;20.60;40.30
4840;DHT22;2434;48.486;7.964;2023-07-20T01:41:24;20.60;40.50
4840;DHT22;2434;48.486;7.964;2023-07-20T01:43:52;20.50;40.60
4840;DHT22;2434;48.486;7.964;2023-07-20T01:46:22;20.50;40.00
4840;DHT22;2434;48.486;7.964;2023-07-20T01:48:51;20.40;40.60
4840;DHT22;2434;48.486;7.964;2023-07-20T01:51:19;20.40;40.00
4840;DHT22;2434;48.486;7.964;2023-07-20T01:53:48;20.40;40.30
4840;DHT22;2434;48.486;7.964;2023-07-20T01:56:17;20.30;40.40
4840;DHT22;2434;48.486;7.964;2023-07-20T01:58:45;20.30;40.20
4840;DHT22;2434;48.486;7.964;2023-07-20T02:01:13;20.30;40.20
4840;DHT22;2434;48.486;7.964;2023-07-20T02:03:43;20.30;40.40
4840;DHT22;2434;48.486;7.964;2023-07-20T02:06:11;20.20;41.30
4840;DHT22;2434;48.486;7.964;2023-07-20T02:08:40;20.20;41.10
4840;DHT22;2434;48.486;7.964;2023-07-20T02:11:08;20.30;41.40
4840;DHT22;2434;48.486;7.964;2023-07-20T02:13:37;20.30;41.60
4840;DHT22;2434;48.486;7.964;2023-07-20T02:16:05;20.30;41.20
4840;DHT22;2434;48.486;7.964;2023-07-20T02:18:34;20.30;41.20
4840;DHT22;2434;48.486;7.964;2023-07-20T02:21:05;20.30;41.80
4840;DHT22;2434;48.486;7.964;2023-07-20T02:23:33;20.30;42.20
4840;DHT22;2434;48.486;7.964;2023-07-20T02:26:02;20.30;42.00
4840;DHT22;2434;48.486;7.964;2023-07-20T02:28:30;20.30;42.20
4840;DHT22;2434;48.486;7.964;2023-07-20T02:30:58;20.30;42.40
4840;DHT22;2434;48.486;7.964;2023-07-20T02:33:27;20.30;41.10
4840;DHT22;2434;48.486;7.964;2023-07-20T02:35:56;20.20;40.90
4840;DHT22;2434;48.486;7.964;2023-07-20T02:38:25;20.20;41.30
4840;DHT22;2434;48.486;7.964;2023-07-20T02:40:53;20.10;41.70
4840;DHT22;2434;48.486;7.964;2023-07-20T02:43:22;20.10;41.90
4840;DHT22;2434;48.486;7.964;2023-07-20T02:45:50;20.10;42.20
4840;DHT22;2434;48.486;7.964;2023-07-20T02:48:19;20.10;42.60
4840;DHT22;2434;48.486;7.964;2023-07-20T02:50:47;20.10;42.30
4840;DHT22;2434;48.486;7.964;2023-07-20T02:53:16;20.00;42.20
4840;DHT22;2434;48.486;7.964;2023-07-20T02:55:46;20.00;42.60
4840;DHT22;2434;48.486;7.964;2023-07-20T02:58:14;20.00;42.80
4840;DHT22;2434;48.486;7.964;2023-07-20T03:00:43;20.00;43.50
4840;DHT22;2434;48.486;7.964;2023-07-20T03:03:11;20.00;43.60
4840;DHT22;2434;48.486;7.964;2023-07-20T03:05:40;20.00;43.40
4840;DHT22;2434;48.486;7.964;2023-07-20T03:08:09;20.00;43.00
4840;DHT22;2434;48.486;7.964;2023-07-20T03:10:40;20.00;42.50
4840;DHT22;2434;48.486;7.964;2023-07-20T03:13:10;19.90;43.10
4840;DHT22;2434;48.486;7.964;2023-07-20T03:15:40;19.90;43.20
4840;DHT22;2434;48.486;7.964;2023-07-20T03:18:09;19.90;43.40
4840;DHT22;2434;48.486;7.964;2023-07-20T03:20:38;19.80;43.70
4840;DHT22;2434;48.486;7.964;2023-07-20T03:23:06;19.80;43.70
4840;DHT22;2434;48.486;7.964;2023-07-20T03:25:34;19.80;44.10
4840;DHT22;2434;48.486;7.964;2023-07-20T03:28:04;19.80;44.20
4840;DHT22;2434;48.486;7.964;2023-07-20T03:30:34;19.70;45.00
4840;DHT22;2434;48.486;7.964;2023-07-20T03:33:03;19.70;44.80
4840;DHT22;2434;48.486;7.964;2023-07-20T03:35:32;19.70;44.50
4840;DHT22;2434;48.486;7.964;2023-07-20T03:38:00;19.80;45.50
4840;DHT22;2434;48.486;7.964;2023-07-20T03:40:28;19.70;45.30
4840;DHT22;2434;48.486;7.964;2023-07-20T03:42:57;19.70;44.70
4840;DHT22;2434;48.486;7.964;2023-07-20T03:45:25;19.70;44.50
4840;DHT22;2434;48.486;7.964;2023-07-20T03:47:54;19.60;44.90
4840;DHT22;2434;48.486;7.964;2023-07-20T03:50:23;19.60;45.60
4840;DHT22;2434;48.486;7.964;2023-07-20T03:52:51;19.50;45.80
4840;DHT22;2434;48.486;7.964;2023-07-20T03:55:19;19.50;46.40
4840;DHT22;2434;48.486;7.964;2023-07-20T03:57:48;19.50;46.50
4840;DHT22;2434;48.486;7.964;2023-07-20T04:00:18;19.50;46.40
4840;DHT22;2434;48.486;7.964;2023-07-20T04:02:46;19.50;46.60
4840;DHT22;2434;48.486;7.964;2023-07-20T04:05:16;19.50;46.90
4840;DHT22;2434;48.486;7.964;2023-07-20T04:07:45;19.50;46.40
4840;DHT22;2434;48.486;7.964;2023-07-20T04:10:13;19.50;45.70
4840;DHT22;2434;48.486;7.964;2023-07-20T04:12:42;19.40;45.70
4840;DHT22;2434;48.486;7.964;2023-07-20T04:15:11;19.40;45.80
4840;DHT22;2434;48.486;7.964;2023-07-20T04:17:40;19.40;45.80
4840;DHT22;2434;48.486;7.964;2023-07-20T04:20:09;19.30;46.60
4840;DHT22;2434;48.486;7.964;2023-07-20T04:22:38;19.40;46.50
4840;DHT22;2434;48.486;7.964;2023-07-20T04:25:10;19.30;46.90
4840;DHT22;2434;48.486;7.964;2023-07-20T04:27:38;19.30;46.70
4840;DHT22;2434;48.486;7.964;2023-07-20T04:30:09;19.40;47.70
4840;DHT22;2434;48.486;7.964;2023-07-20T04:32:39;19.40;47.80
4840;DHT22;2434;48.486;7.964;2023-07-20T04:35:18;19.40;48.50
4840;DHT22;2434;48.486;7.964;2023-07-20T04:37:49;19.40;48.00
4840;DHT22;2434;48.486;7.964;2023-07-20T04:40:20;19.30;47.60
4840;DHT22;2434;48.486;7.964;2023-07-20T04:42:48;19.40;47.50
4840;DHT22;2434;48.486;7.964;2023-07-20T04:45:17;19.30;47.60
4840;DHT22;2434;48.486;7.964;2023-07-20T04:47:46;19.30;48.40
4840;DHT22;2434;48.486;7.964;2023-07-20T04:50:14;19.30;48.60
4840;DHT22;2434;48.486;7.964;2023-07-20T04:52:43;19.30;48.70
4840;DHT22;2434;48.486;7.964;2023-07-20T04:55:18;19.30;48.30
4840;DHT22;2434;48.486;7.964;2023-07-20T04:57:46;19.30;48.90
4840;DHT22;2434;48.486;7.964;2023-07-20T05:00:16;19.40;49.50
4840;DHT22;2434;48.486;7.964;2023-07-20T05:02:45;19.40;49.80
4840;DHT22;2434;48.486;7.964;2023-07-20T05:05:15;19.40;49.50
4840;DHT22;2434;48.486;7.964;2023-07-20T05:07:43;19.40;49.50
4840;DHT22;2434;48.486;7.964;2023-07-20T05:10:12;19.30;48.70
4840;DHT22;2434;48.486;7.964;2023-07-20T05:12:42;19.40;49.50
4840;DHT22;2434;48.486;7.964;2023-07-20T05:15:11;19.40;52.00
4840;DHT22;2434;48.486;7.964;2023-07-20T05:17:41;19.40;52.40
4840;DHT22;2434;48.486;7.964;2023-07-20T05:20:10;19.40;51.60
4840;DHT22;2434;48.486;7.964;2023-07-20T05:22:40;19.40;51.30
4840;DHT22;2434;48.486;7.964;2023-07-20T05:25:08;19.50;52.30
4840;DHT22;2434;48.486;7.964;2023-07-20T05:27:38;19.50;51.90
4840;DHT22;2434;48.486;7.964;2023-07-20T05:30:09;19.50;52.70
4840;DHT22;2434;48.486;7.964;2023-07-20T05:32:37;19.50;52.30
4840;DHT22;2434;48.486;7.964;2023-07-20T05:35:05;19.50;51.40
4840;DHT22;2434;48.486;7.964;2023-07-20T05:37:34;19.50;51.20
4840;DHT22;2434;48.486;7.964;2023-07-20T05:40:02;19.50;52.10
4840;DHT22;2434;48.486;7.964;2023-07-20T05:42:31;19.50;53.10
4840;DHT22;2434;48.486;7.964;2023-07-20T05:44:59;19.50;53.60
4840;DHT22;2434;48.486;7.964;2023-07-20T05:47:29;19.60;53.50
4840;DHT22;2434;48.486;7.964;2023-07-20T05:49:58;19.60;53.80
4840;DHT22;2434;48.486;7.964;2023-07-20T05:52:26;19.60;54.10
4840;DHT22;2434;48.486;7.964;2023-07-20T05:54:54;19.60;54.10
4840;DHT22;2434;48.486;7.964;2023-07-20T05:57:23;19.60;54.30
4840;DHT22;2434;48.486;7.964;2023-07-20T05:59:51;19.70;53.30
4840;DHT22;2434;48.486;7.964;2023-07-20T06:02:19;19.70;52.50
4840;DHT22;2434;48.486;7.964;2023-07-20T06:04:49;19.70;52.10
4840;DHT22;2434;48.486;7.964;2023-07-20T06:07:18;19.70;51.40
4840;DHT22;2434;48.486;7.964;2023-07-20T06:09:46;19.70;51.10
4840;DHT22;2434;48.486;7.964;2023-07-20T06:12:14;19.80;51.40
4840;DHT22;2434;48.486;7.964;2023-07-20T06:14:42;19.80;51.60
4840;DHT22;2434;48.486;7.964;2023-07-20T06:17:11;19.80;51.90
4840;DHT22;2434;48.486;7.964;2023-07-20T06:19:39;19.90;51.50
4840;DHT22;2434;48.486;7.964;2023-07-20T06:22:09;19.90;51.20
4840;DHT22;2434;48.486;7.964;2023-07-20T06:24:38;19.90;50.50
4840;DHT22;2434;48.486;7.964;2023-07-20T06:27:06;19.90;50.10
4840;DHT22;2434;48.486;7.964;2023-07-20T06:29:34;19.90;49.00
4840;DHT22;2434;48.486;7.964;2023-07-20T06:32:03;19.90;49.20
4840;DHT22;2434;48.486;7.964;2023-07-20T06:34:31;20.00;48.10
4840;DHT22;2434;48.486;7.964;2023-07-20T06:37:04;19.90;47.90
4840;DHT22;2434;48.486;7.964;2023-07-20T06:39:34;20.00;47.50
4840;DHT22;2434;48.486;7.964;2023-07-20T06:42:05;20.00;46.70
4840;DHT22;2434;48.486;7.964;2023-07-20T06:44:34;20.00;44.50
4840;DHT22;2434;48.486;7.964;2023-07-20T06:47:02;20.00;44.90
4840;DHT22;2434;48.486;7.964;2023-07-20T06:49:30;20.00;43.70
4840;DHT22;2434;48.486;7.964;2023-07-20T06:51:59;20.00;43.80
4840;DHT22;2434;48.486;7.964;2023-07-20T06:54:27;20.00;42.50
4840;DHT22;2434;48.486;7.964;2023-07-20T06:57:04;20.00;42.70
4840;DHT22;2434;48.486;7.964;2023-07-20T06:59:35;20.00;43.00
4840;DHT22;2434;48.486;7.964;2023-07-20T07:02:07;20.10;42.90
4840;DHT22;2434;48.486;7.964;2023-07-20T07:04:39;20.10;43.20
4840;DHT22;2434;48.486;7.964;2023-07-20T07:07:07;20.10;43.20
4840;DHT22;2434;48.486;7.964;2023-07-20T07:09:36;20.10;42.90
4840;DHT22;2434;48.486;7.964;2023-07-20T07:12:07;20.10;42.70
4840;DHT22;2434;48.486;7.964;2023-07-20T07:14:36;20.10;43.80
4840;DHT22;2434;48.486;7.964;2023-07-20T07:17:05;20.20;43.30
4840;DHT22;2434;48.486;7.964;2023-07-20T07:19:34;20.20;43.30
4840;DHT22;2434;48.486;7.964;2023-07-20T07:22:03;20.20;42.90
4840;DHT22;2434;48.486;7.964;2023-07-20T07:24:32;20.20;43.00
4840;DHT22;2434;48.486;7.964;2023-07-20T07:27:01;20.20;44.00
4840;DHT22;2434;48.486;7.964;2023-07-20T07:29:31;20.30;42.30
4840;DHT22;2434;48.486;7.964;2023-07-20T07:32:00;20.30;44.30
4840;DHT22;2434;48.486;7.964;2023-07-20T07:34:28;20.30;42.70
4840;DHT22;2434;48.486;7.964;2023-07-20T07:36:57;20.30;42.20
4840;DHT22;2434;48.486;7.964;2023-07-20T07:39:25;20.40;44.70
4840;DHT22;2434;48.486;7.964;2023-07-20T07:42:01;20.40;43.50
4840;DHT22;2434;48.486;7.964;2023-07-20T07:44:31;20.40;42.30
4840;DHT22;2434;48.486;7.964;2023-07-20T07:47:00;20.50;41.40
4840;DHT22;2434;48.486;7.964;2023-07-20T07:49:29;20.50;40.70
4840;DHT22;2434;48.486;7.964;2023-07-20T07:51:58;20.50;40.20
4840;DHT22;2434;48.486;7.964;2023-07-20T07:54:29;20.50;40.60
4840;DHT22;2434;48.486;7.964;2023-07-20T07:56:58;20.60;41.00
4840;DHT22;2434;48.486;7.964;2023-07-20T07:59:26;20.50;40.50
4840;DHT22;2434;48.486;7.964;2023-07-20T08:01:57;20.60;39.70
4840;DHT22;2434;48.486;7.964;2023-07-20T08:04:25;20.60;40.30
4840;DHT22;2434;48.486;7.964;2023-07-20T08:06:54;20.60;42.10
4840;DHT22;2434;48.486;7.964;2023-07-20T08:09:24;20.60;41.60
4840;DHT22;2434;48.486;7.964;2023-07-20T08:11:53;20.70;42.00
4840;DHT22;2434;48.486;7.964;2023-07-20T08:14:21;20.80;41.80
4840;DHT22;2434;48.486;7.964;2023-07-20T08:16:50;20.80;42.00
4840;DHT22;2434;48.486;7.964;2023-07-20T08:19:21;20.90;43.10
4840;DHT22;2434;48.486;7.964;2023-07-20T08:21:50;21.10;40.20
4840;DHT22;2434;48.486;7.964;2023-07-20T08:24:19;21.10;41.40
4840;DHT22;2434;48.486;7.964;2023-07-20T08:26:47;21.20;39.90
4840;DHT22;2434;48.486;7.964;2023-07-20T08:29:15;21.20;41.80
4840;DHT22;2434;48.486;7.964;2023-07-20T08:31:43;21.20;40.40
4840;DHT22;2434;48.486;7.964;2023-07-20T08:34:13;21.20;40.90
4840;DHT22;2434;48.486;7.964;2023-07-20T08:36:58;21.40;39.90
4840;DHT22;2434;48.486;7.964;2023-07-20T08:39:26;21.50;39.20
4840;DHT22;2434;48.486;7.964;2023-07-20T08:41:55;21.60;38.10
4840;DHT22;2434;48.486;7.964;2023-07-20T08:44:25;21.70;37.40
4840;DHT22;2434;48.486;7.964;2023-07-20T08:46:54;21.60;35.90
4840;DHT22;2434;48.486;7.964;2023-07-20T08:49:23;21.60;35.90
4840;DHT22;2434;48.486;7.964;2023-07-20T08:51:52;21.60;37.00
4840;DHT22;2434;48.486;7.964;2023-07-20T08:54:22;21.60;36.20
4840;DHT22;2434;48.486;7.964;2023-07-20T08:56:51;21.60;36.00
4840;DHT22;2434;48.486;7.964;2023-07-20T08:59:19;21.60;36.20
4840;DHT22;2434;48.486;7.964;2023-07-20T09:01:48;21.60;37.80
4840;DHT22;2434;48.486;7.964;2023-07-20T09:04:17;21.70;37.40
4840;DHT22;2434;48.486;7.964;2023-07-20T09:06:46;21.80;36.30
4840;DHT22;2434;48.486;7.964;2023-07-20T09:09:14;21.90;36.10
4840;DHT22;2434;48.486;7.964;2023-07-20T09:11:47;22.10;35.70
4840;DHT22;2434;48.486;7.964;2023-07-20T09:14:15;22.20;34.40
4840;DHT22;2434;48.486;7.964;2023-07-20T09:16:54;22.20;33.70
4840;DHT22;2434;48.486;7.964;2023-07-20T09:19:22;22.30;33.90
4840;DHT22;2434;48.486;7.964;2023-07-20T09:21:52;22.30;33.80
4840;DHT22;2434;48.486;7.964;2023-07-20T09:24:20;22.40;32.70
4840;DHT22;2434;48.486;7.964;2023-07-20T09:26:50;22.30;34.60
4840;DHT22;2434;48.486;7.964;2023-07-20T09:29:19;22.50;32.90
4840;DHT22;2434;48.486;7.964;2023-07-20T09:31:58;22.50;32.70
4840;DHT22;2434;48.486;7.964;2023-07-20T09:34:28;22.60;32.90
4840;DHT22;2434;48.486;7.964;2023-07-20T09:37:00;22.70;30.40
4840;DHT22;2434;48.486;7.964;2023-07-20T09:39:29;22.90;29.60
4840;DHT22;2434;48.486;7.964;2023-07-20T09:42:01;23.00;29.80
4840;DHT22;2434;48.486;7.964;2023-07-20T09:44:34;23.00;29.60
4840;DHT22;2434;48.486;7.964;2023-07-20T09:47:05;23.00;30.30
4840;DHT22;2434;48.486;7.964;2023-07-20T09:49:39;23.00;30.10
4840;DHT22;2434;48.486;7.964;2023-07-20T09:52:11;23.00;31.00
4840;DHT22;2434;48.486;7.964;2023-07-20T09:54:40;23.00;29.30
4840;DHT22;2434;48.486;7.964;2023-07-20T09:57:11;22.90;30.00
4840;DHT22;2434;48.486;7.964;2023-07-20T09:59:41;22.90;29.70
4840;DHT22;2434;48.486;7.964;2023-07-20T10:02:13;23.00;30.20
4840;DHT22;2434;48.486;7.964;2023-07-20T10:04:44;23.00;30.90
4840;DHT22;2434;48.486;7.964;2023-07-20T10:07:14;23.00;31.30
4840;DHT22;2434;48.486;7.964;2023-07-20T10:09:43;23.00;32.70
4840;DHT22;2434;48.486;7.964;2023-07-20T10:12:15;23.00;32.70
4840;DHT22;2434;48.486;7.964;2023-07-20T10:14:49;23.10;32.40
4840;DHT22;2434;48.486;7.964;2023-07-20T10:17:21;23.20;32.60
4840;DHT22;2434;48.486;7.964;2023-07-20T10:19:52;23.20;32.40
4840;DHT22;2434;48.486;7.964;2023-07-20T10:22:26;23.20;34.00
4840;DHT22;2434;48.486;7.964;2023-07-20T10:24:54;23.30;32.20
4840;DHT22;2434;48.486;7.964;2023-07-20T10:27:27;23.30;31.90
4840;DHT22;2434;48.486;7.964;2023-07-20T10:29:57;23.30;30.10
4840;DHT22;2434;48.486;7.964;2023-07-20T10:32:28;23.30;31.60
4840;DHT22;2434;48.486;7.964;2023-07-20T10:34:57;23.30;31.50
4840;DHT22;2434;48.486;7.964;2023-07-20T10:37:47;23.40;31.60
4840;DHT22;2434;48.486;7.964;2023-07-20T10:40:33;23.40;30.20
4840;DHT22;2434;48.486;7.964;2023-07-20T10:43:05;23.40;31.90
4840;DHT22;2434;48.486;7.964;2023-07-20T10:45:42;23.50;30.80
4840;DHT22;2434;48.486;7.964;2023-07-20T10:48:14;23.50;30.10
4840;DHT22;2434;48.486;7.964;2023-07-20T10:50:44;23.60;30.90
4840;DHT22;2434;48.486;7.964;2023-07-20T10:53:13;23.60;30.20
4840;DHT22;2434;48.486;7.964;2023-07-20T10:55:42;23.70;33.00
4840;DHT22;2434;48.486;7.964;2023-07-20T10:58:13;23.70;31.50
4840;DHT22;2434;48.486;7.964;2023-07-20T11:00:56;23.70;28.90
4840;DHT22;2434;48.486;7.964;2023-07-20T11:03:33;23.70;29.90
4840;DHT22;2434;48.486;7.964;2023-07-20T11:06:30;23.70;29.50
4840;DHT22;2434;48.486;7.964;2023-07-20T11:09:05;23.70;29.80
4840;DHT22;2434;48.486;7.964;2023-07-20T11:11:36;23.60;29.30
4840;DHT22;2434;48.486;7.964;2023-07-20T11:14:07;23.60;29.90
4840;DHT22;2434;48.486;7.964;2023-07-20T11:16:41;23.60;29.20
4840;DHT22;2434;48.486;7.964;2023-07-20T11:19:16;23.60;29.40
4840;DHT22;2434;48.486;7.964;2023-07-20T11:21:50;23.60;30.00
4840;DHT22;2434;48.486;7.964;2023-07-20T11:24:30;23.60;30.10
4840;DHT22;2434;48.486;7.964;2023-07-20T11:26:59;23.60;31.30
4840;DHT22;2434;48.486;7.964;2023-07-20T11:29:29;23.60;31.40
4840;DHT22;2434;48.486;7.964;2023-07-20T11:32:00;23.70;29.20
4840;DHT22;2434;48.486;7.964;2023-07-20T11:34:33;23.70;27.90
4840;DHT22;2434;48.486;7.964;2023-07-20T11:37:02;23.90;29.30
4840;DHT22;2434;48.486;7.964;2023-07-20T11:39:33;23.90;27.60
4840;DHT22;2434;48.486;7.964;2023-07-20T11:42:03;24.00;28.10
4840;DHT22;2434;48.486;7.964;2023-07-20T11:44:33;24.10;29.00
4840;DHT22;2434;48.486;7.964;2023-07-20T11:47:03;24.20;28.20
4840;DHT22;2434;48.486;7.964;2023-07-20T11:49:35;24.30;29.90
4840;DHT22;2434;48.486;7.964;2023-07-20T11:52:06;24.50;28.90
4840;DHT22;2434;48.486;7.964;2023-07-20T11:54:35;24.70;28.30
4840;DHT22;2434;48.486;7.964;2023-07-20T11:57:04;24.70;27.00
4840;DHT22;2434;48.486;7.964;2023-07-20T11:59:34;24.70;26.50
4840;DHT22;2434;48.486;7.964;2023-07-20T12:02:03;24.70;27.40
4840;DHT22;2434;48.486;7.964;2023-07-20T12:04:32;24.80;30.40
4840;DHT22;2434;48.486;7.964;2023-07-20T12:07:00;24.80;26.60
4840;DHT22;2434;48.486;7.964;2023-07-20T12:09:29;24.80;26.80
4840;DHT22;2434;48.486;7.964;2023-07-20T12:12:18;24.80;25.70
4840;DHT22;2434;48.486;7.964;2023-07-20T12:14:48;24.70;25.00
4840;DHT22;2434;48.486;7.964;2023-07-20T12:17:17;24.70;25.50
4840;DHT22;2434;48.486;7.964;2023-07-20T12:19:45;24.70;26.20
4840;DHT22;2434;48.486;7.964;2023-07-20T12:22:14;24.80;27.00
4840;DHT22;2434;48.486;7.964;2023-07-20T12:24:42;24.80;25.50
4840;DHT22;2434;48.486;7.964;2023-07-20T12:27:13;24.70;24.50
4840;DHT22;2434;48.486;7.964;2023-07-20T12:29:45;24.70;26.40
4840;DHT22;2434;48.486;7.964;2023-07-20T12:32:15;24.80;27.60
4840;DHT22;2434;48.486;7.964;2023-07-20T12:34:43;25.00;28.10
4840;DHT22;2434;48.486;7.964;2023-07-20T12:37:11;25.10;25.10
4840;DHT22;2434;48.486;7.964;2023-07-20T12:39:40;25.10;25.00
4840;DHT22;2434;48.486;7.964;2023-07-20T12:42:14;25.10;24.80
4840;DHT22;2434;48.486;7.964;2023-07-20T12:44:44;25.10;25.10
4840;DHT22;2434;48.486;7.964;2023-07-20T12:47:12;25.10;23.30
4840;DHT22;2434;48.486;7.964;2023-07-20T12:49:42;25.20;23.60
4840;DHT22;2434;48.486;7.964;2023-07-20T12:52:12;25.40;23.80
4840;DHT22;2434;48.486;7.964;2023-07-20T12:54:40;25.50;26.00
4840;DHT22;2434;48.486;7.964;2023-07-20T12:57:08;25.50;25.90
4840;DHT22;2434;48.486;7.964;2023-07-20T12:59:39;25.70;24.30
4840;DHT22;2434;48.486;7.964;2023-07-20T13:02:07;25.90;24.90
4840;DHT22;2434;48.486;7.964;2023-07-20T13:04:35;25.90;24.40
4840;DHT22;2434;48.486;7.964;2023-07-20T13:07:08;26.10;25.10
4840;DHT22;2434;48.486;7.964;2023-07-20T13:09:40;26.10;22.20
4840;DHT22;2434;48.486;7.964;2023-07-20T13:12:08;26.10;22.20
4840;DHT22;2434;48.486;7.964;2023-07-20T13:14:37;26.00;22.80
4840;DHT22;2434;48.486;7.964;2023-07-20T13:17:05;26.00;24.50
4840;DHT22;2434;48.486;7.964;2023-07-20T13:19:35;26.20;24.20
4840;DHT22;2434;48.486;7.964;2023-07-20T13:22:05;26.20;21.60
4840;DHT22;2434;48.486;7.964;2023-07-20T13:24:33;26.30;21.20
4840;DHT22;2434;48.486;7.964;2023-07-20T13:27:02;26.30;20.90
4840;DHT22;2434;48.486;7.964;2023-07-20T13:29:32;26.20;19.00
4840;DHT22;2434;48.486;7.964;2023-07-20T13:32:00;26.20;19.90
4840;DHT22;2434;48.486;7.964;2023-07-20T13:34:30;26.10;21.20
4840;DHT22;2434;48.486;7.964;2023-07-20T13:36:59;26.00;21.00
4840;DHT22;2434;48.486;7.964;2023-07-20T13:39:29;26.00;19.70
4840;DHT22;2434;48.486;7.964;2023-07-20T13:41:57;25.90;19.40
4840;DHT22;2434;48.486;7.964;2023-07-20T13:44:25;25.80;20.00
4840;DHT22;2434;48.486;7.964;2023-07-20T13:46:56;25.90;22.20
4840;DHT22;2434;48.486;7.964;2023-07-20T13:49:44;26.00;22.30
4840;DHT22;2434;48.486;7.964;2023-07-20T13:52:14;26.00;20.30
4840;DHT22;2434;48.486;7.964;2023-07-20T13:54:46;26.10;24.20
4840;DHT22;2434;48.486;7.964;2023-07-20T13:57:19;26.20;20.30
4840;DHT22;2434;48.486;7.964;2023-07-20T13:59:48;26.10;19.90
4840;DHT22;2434;48.486;7.964;2023-07-20T14:02:17;26.20;20.50
4840;DHT22;2434;48.486;7.964;2023-07-20T14:04:48;26.10;20.10
4840;DHT22;2434;48.486;7.964;2023-07-20T14:07:37;26.10;19.80
4840;DHT22;2434;48.486;7.964;2023-07-20T14:10:08;26.00;19.20
4840;DHT22;2434;48.486;7.964;2023-07-20T14:12:39;26.00;19.50
4840;DHT22;2434;48.486;7.964;2023-07-20T14:15:09;26.00;20.40
4840;DHT22;2434;48.486;7.964;2023-07-20T14:17:38;25.90;19.10
4840;DHT22;2434;48.486;7.964;2023-07-20T14:20:07;25.90;20.10
4840;DHT22;2434;48.486;7.964;2023-07-20T14:22:38;25.90;21.30
4840;DHT22;2434;48.486;7.964;2023-07-20T14:25:10;26.10;22.30
4840;DHT22;2434;48.486;7.964;2023-07-20T14:27:38;26.20;21.00
4840;DHT22;2434;48.486;7.964;2023-07-20T14:30:07;26.40;20.10
4840;DHT22;2434;48.486;7.964;2023-07-20T14:32:35;26.40;18.00
4840;DHT22;2434;48.486;7.964;2023-07-20T14:35:06;26.50;19.40
4840;DHT22;2434;48.486;7.964;2023-07-20T14:37:37;26.60;18.10
4840;DHT22;2434;48.486;7.964;2023-07-20T14:40:06;26.70;20.00
4840;DHT22;2434;48.486;7.964;2023-07-20T14:42:36;26.80;18.80
4840;DHT22;2434;48.486;7.964;2023-07-20T14:45:05;26.70;18.20
4840;DHT22;2434;48.486;7.964;2023-07-20T14:47:35;26.80;19.60
4840;DHT22;2434;48.486;7.964;2023-07-20T14:50:05;26.70;18.10
4840;DHT22;2434;48.486;7.964;2023-07-20T14:52:33;26.60;17.40
4840;DHT22;2434;48.486;7.964;2023-07-20T14:55:02;26.50;20.60
4840;DHT22;2434;48.486;7.964;2023-07-20T14:57:30;26.50;19.80
4840;DHT22;2434;48.486;7.964;2023-07-20T15:00:00;26.50;19.50
4840;DHT22;2434;48.486;7.964;2023-07-20T15:02:28;26.50;18.70
4840;DHT22;2434;48.486;7.964;2023-07-20T15:04:56;26.40;18.50
4840;DHT22;2434;48.486;7.964;2023-07-20T15:07:24;26.20;19.00
4840;DHT22;2434;48.486;7.964;2023-07-20T15:09:53;26.20;20.00
4840;DHT22;2434;48.486;7.964;2023-07-20T15:12:21;26.10;18.80
4840;DHT22;2434;48.486;7.964;2023-07-20T15:15:04;26.10;18.80
4840;DHT22;2434;48.486;7.964;2023-07-20T15:17:33;26.10;19.80
4840;DHT22;2434;48.486;7.964;2023-07-20T15:20:03;26.00;19.50
4840;DHT22;2434;48.486;7.964;2023-07-20T15:22:32;25.90;19.30
4840;DHT22;2434;48.486;7.964;2023-07-20T15:25:01;25.90;19.00
4840;DHT22;2434;48.486;7.964;2023-07-20T15:27:31;25.90;19.60
4840;DHT22;2434;48.486;7.964;2023-07-20T15:29:59;25.80;19.70
4840;DHT22;2434;48.486;7.964;2023-07-20T15:32:29;25.80;19.30
4840;DHT22;2434;48.486;7.964;2023-07-20T15:35:18;25.80;21.30
4840;DHT22;2434;48.486;7.964;2023-07-20T15:37:46;25.80;21.70
4840;DHT22;2434;48.486;7.964;2023-07-20T15:40:15;25.80;22.00
4840;DHT22;2434;48.486;7.964;2023-07-20T15:42:43;25.90;22.00
4840;DHT22;2434;48.486;7.964;2023-07-20T15:45:18;25.90;20.00
4840;DHT22;2434;48.486;7.964;2023-07-20T15:47:48;25.90;20.50
4840;DHT22;2434;48.486;7.964;2023-07-20T15:50:17;25.90;23.40
4840;DHT22;2434;48.486;7.964;2023-07-20T15:52:48;25.90;21.40
4840;DHT22;2434;48.486;7.964;2023-07-20T15:55:17;25.90;20.40
4840;DHT22;2434;48.486;7.964;2023-07-20T15:57:45;25.90;20.90
4840;DHT22;2434;48.486;7.964;2023-07-20T16:00:14;25.80;20.60
4840;DHT22;2434;48.486;7.964;2023-07-20T16:02:44;25.90;20.90
4840;DHT22;2434;48.486;7.964;2023-07-20T16:05:14;25.80;19.90
4840;DHT22;2434;48.486;7.964;2023-07-20T16:07:42;25.80;19.70
4840;DHT22;2434;48.486;7.964;2023-07-20T16:10:11;25.80;20.40
4840;DHT22;2434;48.486;7.964;2023-07-20T16:12:40;25.70;20.70
4840;DHT22;2434;48.486;7.964;2023-07-20T16:15:09;25.70;19.80
4840;DHT22;2434;48.486;7.964;2023-07-20T16:17:38;25.70;19.90
4840;DHT22;2434;48.486;7.964;2023-07-20T16:20:08;25.70;22.20